Lake Holcombe, Wisconsin
Current Conditions -  °F | °C
As of 8:35 AM on Friday 28 Nov 2014 (Local Time) from KY23 Reporting Station
Overcast Overcast  
Wind Chill:   Ceiling: 3200
Heat Index: 11°   Visibility: 10mi
Dew Point:   Wind: 7mph
Humidity: 83%   Direction: 110°ESE
Pressure: 30.04"   Gusts: NA
Location:  45.2521°N, 91.2394°W
Report Text: KY23 281435Z AUTO 11006KT 10SM SCT013 OVC032 M11/M14 A3004 RMK AO2 T11151139
Loading
Personal Weather Stations






























Interactive Weather Map New forecast layout! Learn more

10-Day Weather Forecast

Advertisements
Track Severe Weather on mobile